createdAt,value
2018-07-05T00:00:09.441Z,9.73
2018-07-05T00:02:49.327Z,7.07
2018-07-05T00:05:29.003Z,8.80
2018-07-05T00:08:08.631Z,12.53
2018-07-05T00:10:48.349Z,7.87
2018-07-05T00:13:29.189Z,6.93
2018-07-05T00:16:08.990Z,7.70
2018-07-05T00:18:49.795Z,8.70
2018-07-05T00:21:29.993Z,7.77
2018-07-05T00:24:09.767Z,8.63
2018-07-05T00:26:43.605Z,8.03
2018-07-05T00:29:24.773Z,11.67
2018-07-05T00:32:04.363Z,9.10
2018-07-05T00:34:44.138Z,10.27
2018-07-05T00:37:23.913Z,11.00
2018-07-05T00:40:03.762Z,9.37
2018-07-05T00:42:43.332Z,7.97
2018-07-05T00:45:23.173Z,7.60
2018-07-05T00:48:02.964Z,9.50
2018-07-05T00:50:42.758Z,8.80
2018-07-05T00:53:22.524Z,9.23
2018-07-05T00:56:02.342Z,10.43
2018-07-05T00:58:42.029Z,10.33
2018-07-05T01:01:21.758Z,13.20
2018-07-05T01:04:01.715Z,9.03
2018-07-05T01:06:41.542Z,12.20
2018-07-05T01:09:21.442Z,9.10
2018-07-05T01:12:01.252Z,11.03
2018-07-05T01:14:41.071Z,11.67
2018-07-05T01:17:20.842Z,9.00
2018-07-05T01:20:00.707Z,8.00
2018-07-05T01:22:40.412Z,12.43
2018-07-05T01:25:20.164Z,10.07
2018-07-05T01:27:59.931Z,7.80
2018-07-05T01:30:39.662Z,8.30
2018-07-05T01:33:19.523Z,8.50
2018-07-05T01:35:59.361Z,10.50
2018-07-05T01:38:39.207Z,8.10
2018-07-05T01:41:18.944Z,9.13
2018-07-05T01:43:58.733Z,7.27
2018-07-05T01:46:38.547Z,11.83
2018-07-05T01:49:18.521Z,7.03
2018-07-05T01:51:58.453Z,8.10
2018-07-05T01:54:38.306Z,7.87
2018-07-05T01:57:18.056Z,11.93
2018-07-05T01:59:57.683Z,8.13
2018-07-05T02:02:31.405Z,10.47
2018-07-05T02:05:11.293Z,8.50
2018-07-05T02:07:51.125Z,8.53
2018-07-05T02:10:30.844Z,9.67
2018-07-05T02:13:10.626Z,10.03
2018-07-05T02:15:50.409Z,7.90
2018-07-05T02:18:30.306Z,6.47
2018-07-05T02:21:10.255Z,7.57
2018-07-05T02:23:50.177Z,6.43
2018-07-05T02:26:29.960Z,7.20
2018-07-05T02:29:09.766Z,10.83
2018-07-05T02:31:49.602Z,7.77
2018-07-05T02:34:29.320Z,7.40
2018-07-05T02:37:13.087Z,7.23
2018-07-05T02:39:52.985Z,6.60
2018-07-05T02:42:32.712Z,8.73
2018-07-05T02:45:12.450Z,9.73
2018-07-05T02:47:52.052Z,8.73
2018-07-05T02:50:31.798Z,7.60
2018-07-05T02:53:11.492Z,8.20
2018-07-05T02:55:51.362Z,8.37
2018-07-05T02:58:31.314Z,7.67
2018-07-05T03:01:11.026Z,7.73
2018-07-05T03:03:50.806Z,9.13
2018-07-05T03:06:30.390Z,10.37
2018-07-05T03:09:10.244Z,9.60
2018-07-05T03:11:50.456Z,9.20
2018-07-05T03:14:30.556Z,10.03
2018-07-05T03:17:10.374Z,11.73
2018-07-05T03:19:50.230Z,10.97
2018-07-05T03:22:29.850Z,9.97
2018-07-05T03:25:09.706Z,8.27
2018-07-05T03:27:49.445Z,8.57
2018-07-05T03:30:29.201Z,10.63
2018-07-05T03:33:08.933Z,8.97
2018-07-05T03:35:48.599Z,8.60
2018-07-05T03:38:28.273Z,11.43
2018-07-05T03:41:07.977Z,9.00
2018-07-05T03:43:47.781Z,12.47
2018-07-05T03:46:27.543Z,9.93
2018-07-05T03:49:01.207Z,10.27
2018-07-05T03:51:41.262Z,11.17
2018-07-05T03:54:21.053Z,12.03
2018-07-05T03:57:00.877Z,12.63
2018-07-05T03:59:40.771Z,12.37
2018-07-05T04:02:20.580Z,13.73
2018-07-05T04:05:00.397Z,11.20
2018-07-05T04:07:40.226Z,10.67
2018-07-05T04:10:19.946Z,9.90
2018-07-05T04:13:01.244Z,11.60
2018-07-05T04:15:41.017Z,14.33
2018-07-05T04:18:20.812Z,13.20
2018-07-05T04:21:00.435Z,12.37
2018-07-05T04:23:40.218Z,11.77
2018-07-05T04:26:20.006Z,10.93
2018-07-05T04:28:59.812Z,11.30
2018-07-05T04:31:39.636Z,10.23
2018-07-05T04:34:19.419Z,13.07
2018-07-05T04:36:59.062Z,13.27
2018-07-05T04:39:38.748Z,11.80
2018-07-05T04:42:18.452Z,11.57
2018-07-05T04:44:58.244Z,11.13
2018-07-05T04:47:38.154Z,11.27
2018-07-05T04:50:17.956Z,12.70
2018-07-05T04:52:57.646Z,10.90
2018-07-05T04:55:37.421Z,10.43
2018-07-05T04:58:17.210Z,13.50
2018-07-05T05:00:57.024Z,13.23
2018-07-05T05:03:36.825Z,11.57
2018-07-05T05:06:16.618Z,10.63
2018-07-05T05:08:56.436Z,11.00
2018-07-05T05:11:36.190Z,12.10
2018-07-05T05:14:16.022Z,10.50
2018-07-05T05:16:55.964Z,11.87
2018-07-05T05:19:35.832Z,11.77
2018-07-05T05:22:15.749Z,12.10
2018-07-05T05:24:56.556Z,10.17
2018-07-05T05:27:36.381Z,12.93
2018-07-05T05:30:16.153Z,10.27
2018-07-05T05:32:55.843Z,11.03
2018-07-05T05:35:35.675Z,14.00
2018-07-05T05:38:15.410Z,11.10
2018-07-05T05:40:55.217Z,11.47
2018-07-05T05:43:34.997Z,11.80
2018-07-05T05:46:15.423Z,12.43
2018-07-05T05:48:55.059Z,12.87
2018-07-05T05:51:34.780Z,11.13
2018-07-05T05:54:14.501Z,11.67
2018-07-05T05:56:54.305Z,12.70
2018-07-05T05:59:34.046Z,11.27
2018-07-05T06:02:13.738Z,14.67
2018-07-05T06:04:53.478Z,15.87
2018-07-05T06:07:33.265Z,12.30
2018-07-05T06:10:13.145Z,12.50
2018-07-05T06:12:52.879Z,11.00
2018-07-05T06:15:32.549Z,14.30
2018-07-05T06:18:12.209Z,13.73
2018-07-05T06:20:51.767Z,11.20
2018-07-05T06:23:31.873Z,14.30
2018-07-05T06:26:11.695Z,15.70
2018-07-05T06:28:51.357Z,13.53
2018-07-05T06:31:31.200Z,12.50
2018-07-05T06:34:11.113Z,14.27
2018-07-05T06:36:51.240Z,12.17
2018-07-05T06:39:30.984Z,15.60
2018-07-05T06:42:10.704Z,16.07
2018-07-05T06:44:50.317Z,13.33
2018-07-05T06:47:30.173Z,13.27
2018-07-05T06:50:09.864Z,17.17
2018-07-05T06:52:49.686Z,13.23
2018-07-05T06:55:29.460Z,13.67
2018-07-05T06:58:09.234Z,13.90
2018-07-05T07:00:48.811Z,15.87
2018-07-05T07:03:28.720Z,16.13
2018-07-05T07:06:08.376Z,14.63
2018-07-05T07:08:47.872Z,17.50
2018-07-05T07:11:27.573Z,15.10
2018-07-05T07:14:07.250Z,15.53
2018-07-05T07:16:46.917Z,13.27
2018-07-05T07:19:26.449Z,20.00
2018-07-05T07:22:05.969Z,15.60
2018-07-05T07:24:45.656Z,13.73
2018-07-05T07:27:25.332Z,13.53
2018-07-05T07:30:04.901Z,14.97
2018-07-05T07:32:39.270Z,13.70
2018-07-05T07:35:19.228Z,13.50
2018-07-05T07:37:59.045Z,12.93
2018-07-05T07:40:38.774Z,12.73
2018-07-05T07:43:06.228Z,14.57
2018-07-05T07:45:33.684Z,13.30
2018-07-05T07:48:00.938Z,14.47
2018-07-05T07:50:28.288Z,12.83
2018-07-05T07:52:55.624Z,13.67
2018-07-05T07:55:22.985Z,15.70
2018-07-05T07:57:50.332Z,14.30
2018-07-05T08:00:17.693Z,11.80
2018-07-05T08:02:45.089Z,12.37
2018-07-05T08:05:12.423Z,12.43
2018-07-05T08:07:39.784Z,12.23
2018-07-05T08:10:07.375Z,16.57
2018-07-05T08:12:34.723Z,12.67
2018-07-05T08:15:02.079Z,11.07
2018-07-05T08:17:29.418Z,12.10
2018-07-05T08:19:56.748Z,11.43
2018-07-05T08:22:24.097Z,12.43
2018-07-05T08:24:51.448Z,13.93
2018-07-05T08:27:18.924Z,13.03
2018-07-05T08:29:47.520Z,11.90
2018-07-05T08:32:14.936Z,12.47
2018-07-05T08:34:42.333Z,18.83
2018-07-05T08:37:09.707Z,13.80
2018-07-05T08:39:37.090Z,14.20
2018-07-05T08:42:04.453Z,12.57
2018-07-05T08:44:31.781Z,11.80
2018-07-05T08:46:59.141Z,17.43
2018-07-05T08:49:26.505Z,11.27
2018-07-05T08:51:53.830Z,11.13
2018-07-05T08:54:21.145Z,14.67
2018-07-05T08:56:48.501Z,14.90
2018-07-05T08:59:15.839Z,13.60
2018-07-05T09:01:43.196Z,12.30
2018-07-05T09:04:10.528Z,11.53
2018-07-05T09:06:37.865Z,11.10
2018-07-05T09:09:05.718Z,8.97
2018-07-05T09:11:33.138Z,10.00
2018-07-05T09:14:00.472Z,12.47
2018-07-05T09:16:27.825Z,12.60
2018-07-05T09:18:55.221Z,9.43
2018-07-05T09:21:22.584Z,10.30
2018-07-05T09:23:49.992Z,11.07
2018-07-05T09:26:17.324Z,13.13
2018-07-05T09:28:44.660Z,11.10
2018-07-05T09:31:12.052Z,8.00
2018-07-05T09:33:39.372Z,10.47
2018-07-05T09:36:06.715Z,7.87
2018-07-05T09:38:34.079Z,10.70
2018-07-05T09:41:01.434Z,8.73
2018-07-05T09:43:28.775Z,9.23
2018-07-05T09:45:56.124Z,10.07
2018-07-05T09:48:23.549Z,12.10
2018-07-05T09:50:50.989Z,13.50
2018-07-05T09:53:18.355Z,8.50
2018-07-05T09:55:45.761Z,11.40
2018-07-05T09:58:13.155Z,9.50
2018-07-05T10:00:45.825Z,8.67
2018-07-05T10:03:13.185Z,9.33
2018-07-05T10:05:40.526Z,8.37
2018-07-05T10:08:07.867Z,10.43
2018-07-05T10:10:35.264Z,8.80
2018-07-05T10:13:02.677Z,8.77
2018-07-05T10:15:30.295Z,8.50
2018-07-05T10:17:57.631Z,11.80
2018-07-05T10:20:25.053Z,10.93
2018-07-05T10:22:52.423Z,9.73
2018-07-05T10:25:19.769Z,10.07
2018-07-05T10:27:47.133Z,8.30
2018-07-05T10:30:26.747Z,7.17
2018-07-05T10:33:06.342Z,8.30
2018-07-05T10:35:33.689Z,6.77
2018-07-05T10:38:02.258Z,7.77
2018-07-05T10:40:42.954Z,7.87
2018-07-05T10:43:22.473Z,8.43
2018-07-05T10:46:02.422Z,8.83
2018-07-05T10:48:42.122Z,9.07
2018-07-05T10:51:22.338Z,6.40
2018-07-05T10:54:02.485Z,9.70
2018-07-05T10:56:41.979Z,7.77
2018-07-05T10:59:21.517Z,5.93
2018-07-05T11:02:01.365Z,5.83
2018-07-05T11:04:40.996Z,7.40
2018-07-05T11:07:20.964Z,7.47
2018-07-05T11:10:01.058Z,6.30
2018-07-05T11:12:34.890Z,7.07
2018-07-05T11:15:14.935Z,7.43
2018-07-05T11:17:48.987Z,7.03
2018-07-05T11:20:28.942Z,5.10
2018-07-05T11:23:08.544Z,5.70
2018-07-05T11:25:48.046Z,9.00
2018-07-05T11:28:27.696Z,5.57
2018-07-05T11:31:07.180Z,7.10
2018-07-05T11:33:46.644Z,6.80
2018-07-05T11:36:26.218Z,5.10
2018-07-05T11:39:06.372Z,6.90
2018-07-05T11:41:46.475Z,6.50
2018-07-05T11:44:26.190Z,5.47
2018-07-05T11:47:05.950Z,9.70
2018-07-05T11:49:45.549Z,5.83
2018-07-05T11:52:25.119Z,6.17
2018-07-05T11:55:04.676Z,4.40
2018-07-05T11:57:44.207Z,5.43
2018-07-05T12:00:23.916Z,5.13
2018-07-05T12:03:03.481Z,4.50
2018-07-05T12:05:43.038Z,4.13
2018-07-05T12:08:22.738Z,3.80
2018-07-05T12:11:02.610Z,4.50
2018-07-05T12:13:42.303Z,4.97
2018-07-05T12:16:22.040Z,4.73
2018-07-05T12:19:01.807Z,6.53
2018-07-05T12:21:41.617Z,3.67
2018-07-05T12:24:21.414Z,4.60
2018-07-05T12:27:01.142Z,4.20
2018-07-05T12:29:41.106Z,3.80
2018-07-05T12:32:21.083Z,3.90
2018-07-05T12:35:00.942Z,3.73
2018-07-05T12:37:40.418Z,4.60
2018-07-05T12:40:20.010Z,6.93
2018-07-05T12:42:59.479Z,4.43
2018-07-05T12:45:39.114Z,4.93
2018-07-05T12:48:18.779Z,6.13
2018-07-05T12:50:58.316Z,4.70
2018-07-05T12:54:40.305Z,4.60
2018-07-05T12:57:19.983Z,6.47
2018-07-05T12:59:59.713Z,5.57
2018-07-05T13:02:39.564Z,3.83
2018-07-05T13:05:13.229Z,3.77
2018-07-05T13:07:53.169Z,4.67
2018-07-05T13:10:33.025Z,8.10
2018-07-05T13:13:12.745Z,3.63
2018-07-05T13:15:52.681Z,5.97
2018-07-05T13:18:32.473Z,8.30
2018-07-05T13:21:12.273Z,3.70
2018-07-05T13:23:52.042Z,3.87
2018-07-05T13:26:31.846Z,4.00
2018-07-05T13:29:11.509Z,3.90
2018-07-05T13:31:51.113Z,3.97
2018-07-05T13:34:30.822Z,5.67
2018-07-05T13:37:10.673Z,5.40
2018-07-05T13:39:50.307Z,7.10
2018-07-05T13:42:30.267Z,4.77
2018-07-05T13:45:10.018Z,5.90
2018-07-05T13:47:49.516Z,3.67
2018-07-05T13:50:29.057Z,4.20
2018-07-05T13:53:08.602Z,2.37
2018-07-05T13:55:48.207Z,8.43
2018-07-05T13:58:28.036Z,4.27
2018-07-05T14:01:07.668Z,3.83
2018-07-05T14:03:47.588Z,5.63
2018-07-05T14:06:27.357Z,4.43
2018-07-05T14:09:07.206Z,3.93
2018-07-05T14:11:46.837Z,6.53
2018-07-05T14:14:26.588Z,3.23
2018-07-05T14:17:06.319Z,4.50
2018-07-05T14:19:46.049Z,5.50
2018-07-05T14:22:25.771Z,4.27
2018-07-05T14:25:05.993Z,5.23
2018-07-05T14:27:45.652Z,6.40
2018-07-05T14:30:25.403Z,5.73
2018-07-05T14:33:05.248Z,7.63
2018-07-05T14:35:44.761Z,5.03
2018-07-05T14:38:24.240Z,5.83
2018-07-05T14:41:03.958Z,5.30
2018-07-05T14:43:43.566Z,5.10
2018-07-05T14:46:23.244Z,3.97
2018-07-05T14:49:03.003Z,4.77
2018-07-05T14:51:43.029Z,6.23
2018-07-05T14:54:16.757Z,5.00
2018-07-05T14:56:56.667Z,4.33
2018-07-05T14:59:30.317Z,4.53
2018-07-05T15:02:10.179Z,5.13
2018-07-05T15:04:49.928Z,5.90
2018-07-05T15:07:29.751Z,3.23
2018-07-05T15:10:09.488Z,5.07
2018-07-05T15:12:49.334Z,4.77
2018-07-05T15:15:28.886Z,4.87
2018-07-05T15:18:08.430Z,5.47
2018-07-05T15:20:48.016Z,6.43
2018-07-05T15:23:27.616Z,4.73
2018-07-05T15:26:07.398Z,5.50
2018-07-05T15:28:47.152Z,7.60
2018-07-05T15:31:27.375Z,5.57
2018-07-05T15:34:07.406Z,2.93
2018-07-05T15:36:47.152Z,4.33
2018-07-05T15:39:21.538Z,6.80
2018-07-05T15:42:01.320Z,4.63
2018-07-05T15:44:41.188Z,3.30
2018-07-05T15:47:21.112Z,4.03
2018-07-05T15:49:54.737Z,8.43
2018-07-05T15:52:34.300Z,3.67
2018-07-05T15:55:13.898Z,3.77
2018-07-05T15:57:53.474Z,3.57
2018-07-05T16:00:33.042Z,4.80
2018-07-05T16:03:12.730Z,3.13
2018-07-05T16:05:52.641Z,2.73
2018-07-05T16:08:32.446Z,3.30
2018-07-05T16:11:12.283Z,3.43
2018-07-05T16:13:52.042Z,2.13
2018-07-05T16:16:31.876Z,4.23
2018-07-05T16:19:11.667Z,2.33
2018-07-05T16:21:51.325Z,4.37
2018-07-05T16:24:31.150Z,2.23
2018-07-05T16:27:10.884Z,3.07
2018-07-05T16:29:50.663Z,5.73
2018-07-05T16:32:30.358Z,2.83
2018-07-05T16:35:10.203Z,3.40
2018-07-05T16:37:44.069Z,3.10
2018-07-05T16:40:23.918Z,2.80
2018-07-05T16:43:03.718Z,4.13
2018-07-05T16:45:43.361Z,3.63
2018-07-05T16:48:23.023Z,2.33
2018-07-05T16:51:02.653Z,4.43
2018-07-05T16:53:42.425Z,3.20
2018-07-05T16:56:22.135Z,2.33
2018-07-05T16:59:02.015Z,7.27
2018-07-05T17:01:41.659Z,3.07
2018-07-05T17:04:21.334Z,4.47
2018-07-05T17:07:01.300Z,2.50
2018-07-05T17:09:41.065Z,2.03
2018-07-05T17:12:20.573Z,2.60
2018-07-05T17:15:00.142Z,6.37
2018-07-05T17:17:39.688Z,4.17
2018-07-05T17:20:19.178Z,2.43
2018-07-05T17:22:58.716Z,4.67
2018-07-05T17:25:38.280Z,3.77
2018-07-05T17:28:18.025Z,4.27
2018-07-05T17:30:57.867Z,1.70
2018-07-05T17:33:37.621Z,2.10
2018-07-05T17:36:17.586Z,4.53
2018-07-05T17:38:51.637Z,2.00
2018-07-05T17:41:31.215Z,2.73
2018-07-05T17:44:10.925Z,3.67
2018-07-05T17:46:50.607Z,2.70
2018-07-05T17:49:30.139Z,3.20
2018-07-05T17:52:09.748Z,2.40
2018-07-05T17:54:49.322Z,2.93
2018-07-05T17:57:28.858Z,4.00
2018-07-05T18:00:08.412Z,2.63
2018-07-05T18:02:48.016Z,2.00
2018-07-05T18:05:27.562Z,1.73
2018-07-05T18:08:07.136Z,2.00
2018-07-05T18:10:46.671Z,2.23
2018-07-05T18:13:26.266Z,2.13
2018-07-05T18:16:05.869Z,2.17
2018-07-05T18:18:45.410Z,3.10
2018-07-05T18:21:25.727Z,2.20
2018-07-05T18:24:05.266Z,3.47
2018-07-05T18:26:44.796Z,2.47
2018-07-05T18:29:24.704Z,2.50
2018-07-05T18:32:04.254Z,4.40
2018-07-05T18:34:43.985Z,2.20
2018-07-05T18:37:23.708Z,3.63
2018-07-05T18:40:03.348Z,1.87
2018-07-05T18:42:43.069Z,2.87
2018-07-05T18:45:22.745Z,1.77
2018-07-05T18:48:02.556Z,3.20
2018-07-05T18:50:42.332Z,3.60
2018-07-05T18:53:22.071Z,2.50
2018-07-05T18:56:01.957Z,2.77
2018-07-05T18:58:41.730Z,2.10
2018-07-05T19:01:21.636Z,2.83
2018-07-05T19:04:01.359Z,3.55
2018-07-05T19:06:41.113Z,2.43
2018-07-05T19:09:20.788Z,3.50
2018-07-05T19:12:00.737Z,2.40
2018-07-05T19:14:40.572Z,2.57
2018-07-05T19:17:20.339Z,2.13
2018-07-05T19:20:00.055Z,1.67
2018-07-05T19:22:40.141Z,1.43
2018-07-05T19:25:20.014Z,1.47
2018-07-05T19:27:59.776Z,2.03
2018-07-05T19:30:39.556Z,2.73
2018-07-05T19:33:19.543Z,2.33
2018-07-05T19:35:59.222Z,2.90
2018-07-05T19:38:38.998Z,1.37
2018-07-05T19:41:18.714Z,1.53
2018-07-05T19:43:52.498Z,2.73
2018-07-05T19:46:32.362Z,3.77
2018-07-05T19:49:12.194Z,3.53
2018-07-05T19:51:51.984Z,2.90
2018-07-05T19:54:31.884Z,1.67
2018-07-05T19:57:11.660Z,3.43
2018-07-05T19:59:51.475Z,1.77
2018-07-05T20:02:31.283Z,1.30
2018-07-05T20:05:11.149Z,3.27
2018-07-05T20:07:50.949Z,3.73
2018-07-05T20:10:30.877Z,8.03
2018-07-05T20:13:10.498Z,2.03
2018-07-05T20:15:50.234Z,1.10
2018-07-05T20:18:29.994Z,2.67
2018-07-05T20:21:09.735Z,1.63
2018-07-05T20:23:49.559Z,1.87
2018-07-05T20:26:29.483Z,2.97
2018-07-05T20:29:09.332Z,2.07
2018-07-05T20:31:43.076Z,1.50
2018-07-05T20:34:22.844Z,2.50
2018-07-05T20:37:02.487Z,1.60
2018-07-05T20:39:42.536Z,2.37
2018-07-05T20:42:22.268Z,2.60
2018-07-05T20:45:02.102Z,1.40
2018-07-05T20:47:41.651Z,4.10
2018-07-05T20:50:21.316Z,3.03
2018-07-05T20:53:01.153Z,1.43
2018-07-05T20:55:40.974Z,2.30
2018-07-05T20:58:20.734Z,1.50
2018-07-05T21:01:00.563Z,2.10
2018-07-05T21:03:40.390Z,3.20
2018-07-05T21:06:20.188Z,2.90
2018-07-05T21:08:59.816Z,3.43
2018-07-05T21:11:39.589Z,4.67
2018-07-05T21:14:19.450Z,3.07
2018-07-05T21:16:59.226Z,3.20
2018-07-05T21:19:39.101Z,2.63
2018-07-05T21:22:18.863Z,2.10
2018-07-05T21:24:58.556Z,2.60
2018-07-05T21:27:38.209Z,3.17
2018-07-05T21:30:17.990Z,3.00
2018-07-05T21:32:57.824Z,3.53
2018-07-05T21:35:31.577Z,2.60
2018-07-05T21:38:11.511Z,4.60
2018-07-05T21:40:51.169Z,3.07
2018-07-05T21:43:30.981Z,4.27
2018-07-05T21:46:10.923Z,2.83
2018-07-05T21:48:50.710Z,3.53
2018-07-05T21:51:30.783Z,3.03
2018-07-05T21:54:10.589Z,4.20
2018-07-05T21:56:50.770Z,4.23
2018-07-05T21:59:30.550Z,5.87
2018-07-05T22:02:10.222Z,3.13
2018-07-05T22:04:50.113Z,3.43
2018-07-05T22:07:29.866Z,3.00
2018-07-05T22:10:09.898Z,4.70
2018-07-05T22:12:49.761Z,5.70
2018-07-05T22:15:29.606Z,3.40
2018-07-05T22:18:14.862Z,6.93
2018-07-05T22:21:01.390Z,4.23
2018-07-05T22:23:46.614Z,3.87
2018-07-05T22:26:36.697Z,3.67
2018-07-05T22:29:21.792Z,4.07
2018-07-05T22:32:01.572Z,4.33
2018-07-05T22:34:41.422Z,4.03
2018-07-05T22:37:21.189Z,4.13
2018-07-05T22:40:00.865Z,5.00
2018-07-05T22:42:40.611Z,6.37
2018-07-05T22:45:20.417Z,5.70
2018-07-05T22:48:00.229Z,4.57
2018-07-05T22:50:39.921Z,4.33
2018-07-05T22:53:19.681Z,6.27
2018-07-05T22:55:59.621Z,4.30
2018-07-05T22:58:39.311Z,4.60
2018-07-05T23:01:18.963Z,4.20
2018-07-05T23:03:58.559Z,10.43
2018-07-05T23:06:32.335Z,4.50
2018-07-05T23:09:12.229Z,5.73
2018-07-05T23:11:51.969Z,4.43
2018-07-05T23:14:31.749Z,5.10
2018-07-05T23:17:11.539Z,4.40
2018-07-05T23:19:51.202Z,4.70
2018-07-05T23:22:30.784Z,4.67
2018-07-05T23:25:10.566Z,4.70
2018-07-05T23:27:50.616Z,4.97
2018-07-05T23:30:30.441Z,5.80
2018-07-05T23:33:10.286Z,6.47
2018-07-05T23:35:49.937Z,6.70
2018-07-05T23:38:29.785Z,5.53
2018-07-05T23:41:09.445Z,8.23
2018-07-05T23:43:49.255Z,7.03
2018-07-05T23:46:29.156Z,6.77
2018-07-05T23:49:08.885Z,6.80
2018-07-05T23:51:48.605Z,6.33
2018-07-05T23:54:29.391Z,6.60
2018-07-05T23:57:09.203Z,7.00
2018-07-05T23:59:48.901Z,7.03
